Time;durP1;ratioP1;P1;durP2;ratioP2;P2;SDS_P1;SDS_P2;PMS_P1;PMS_P2;Temp;Humidity;BMP_temperature;BMP_pressure;BME280_temperature;BME280_humidity;BME280_pressure;Samples;Min_cycle;Max_cycle;Signal;HPM_P1;HPM_P2
2023/05/18 00:01:59;;;;;;;12.53;12.03;;;8.10;99.90;;;;;;5036860;28;20490;-67
2023/05/18 00:04:27;;;;;;;13.20;12.70;;;8.10;99.90;;;;;;5042871;28;20471;-67
2023/05/18 00:06:57;;;;;;;12.90;12.40;;;8.00;99.90;;;;;;5046338;28;20927;-66
2023/05/18 00:09:24;;;;;;;12.33;11.83;;;8.10;99.90;;;;;;5028356;28;21005;-68
2023/05/18 00:11:51;;;;;;;12.40;11.90;;;8.00;99.90;;;;;;5044763;28;21028;-66
2023/05/18 00:14:20;;;;;;;12.40;11.90;;;8.00;99.90;;;;;;5040650;28;20498;-67
2023/05/18 00:16:47;;;;;;;12.50;12.00;;;8.00;99.90;;;;;;5039731;28;20472;-66
2023/05/18 00:19:15;;;;;;;13.10;12.60;;;8.00;99.90;;;;;;5042599;28;20981;-66
2023/05/18 00:21:42;;;;;;;12.20;11.70;;;8.00;99.90;;;;;;5043278;28;20545;-67
2023/05/18 00:24:10;;;;;;;12.40;11.90;;;8.00;99.90;;;;;;5038292;28;20736;-67
2023/05/18 00:26:38;;;;;;;12.40;11.90;;;7.90;99.90;;;;;;5035988;28;20880;-66
2023/05/18 00:29:05;;;;;;;11.70;11.27;;;7.90;99.90;;;;;;5035613;28;20463;-67
2023/05/18 00:31:38;;;;;;;12.53;12.03;;;7.90;99.90;;;;;;5039205;28;20463;-67
2023/05/18 00:34:05;;;;;;;11.73;11.33;;;7.80;99.90;;;;;;5032583;28;20486;-67
2023/05/18 00:36:32;;;;;;;12.60;12.10;;;7.80;99.90;;;;;;5040811;28;21067;-67
2023/05/18 00:38:59;;;;;;;12.60;12.10;;;7.70;99.90;;;;;;5049247;28;20487;-66
2023/05/18 00:41:27;;;;;;;13.23;12.57;;;7.70;99.90;;;;;;5047169;28;20462;-68
2023/05/18 00:43:54;;;;;;;12.30;11.80;;;7.70;99.90;;;;;;5038528;28;20533;-67
2023/05/18 00:46:22;;;;;;;12.60;12.10;;;7.70;99.90;;;;;;5038129;28;20464;-67
2023/05/18 00:48:51;;;;;;;12.70;12.20;;;7.60;99.90;;;;;;5045767;28;20451;-66
2023/05/18 00:51:19;;;;;;;12.70;12.20;;;7.50;99.90;;;;;;5041115;28;20497;-68
2023/05/18 00:53:47;;;;;;;12.53;12.03;;;7.40;99.90;;;;;;5047591;28;20448;-67
2023/05/18 00:56:15;;;;;;;12.30;11.80;;;7.40;99.90;;;;;;5035148;28;20466;-67
2023/05/18 00:58:42;;;;;;;12.30;11.80;;;7.40;99.90;;;;;;5041453;28;20498;-67
2023/05/18 01:01:09;;;;;;;11.57;11.17;;;7.40;99.90;;;;;;5038227;28;20456;-66
2023/05/18 01:03:37;;;;;;;11.80;11.40;;;7.40;99.90;;;;;;5040323;28;20466;-67
2023/05/18 01:06:06;;;;;;;11.50;11.10;;;7.40;99.90;;;;;;5041303;28;20467;-67
2023/05/18 01:08:35;;;;;;;12.00;11.60;;;7.30;99.90;;;;;;5034456;28;20862;-67
2023/05/18 01:11:08;;;;;;;11.70;11.30;;;7.30;99.90;;;;;;5041485;28;20515;-67
2023/05/18 01:13:42;;;;;;;11.80;11.40;;;7.20;99.90;;;;;;5043145;28;20464;-66
2023/05/18 01:16:16;;;;;;;11.27;10.87;;;7.20;99.90;;;;;;5042687;28;21025;-67
2023/05/18 01:18:53;;;;;;;12.40;11.90;;;7.20;99.90;;;;;;5036435;28;20978;-67
2023/05/18 01:21:41;;;;;;;11.80;11.40;;;7.10;99.90;;;;;;5043172;28;20492;-68
2023/05/18 01:24:24;;;;;;;11.50;11.10;;;7.10;99.90;;;;;;5041649;28;20476;-67
2023/05/18 01:26:56;;;;;;;11.40;11.00;;;7.10;99.90;;;;;;5045939;28;20969;-69
2023/05/18 01:29:25;;;;;;;10.93;10.53;;;7.00;99.90;;;;;;5039570;28;20491;-68
2023/05/18 01:31:53;;;;;;;11.50;11.10;;;7.00;99.90;;;;;;5038871;28;20547;-68
2023/05/18 01:34:20;;;;;;;11.80;11.30;;;7.00;99.90;;;;;;5041647;28;20474;-68
2023/05/18 01:36:46;;;;;;;11.50;11.10;;;6.90;99.90;;;;;;5046718;28;20871;-68
2023/05/18 01:39:14;;;;;;;11.60;11.20;;;6.90;99.90;;;;;;5042454;28;20487;-68
2023/05/18 01:41:47;;;;;;;11.37;10.97;;;6.80;99.90;;;;;;5041874;28;20981;-68
2023/05/18 01:44:21;;;;;;;11.90;11.50;;;6.80;99.90;;;;;;5040036;28;20464;-67
2023/05/18 01:46:56;;;;;;;11.60;11.20;;;6.70;99.90;;;;;;5047054;28;20466;-68
2023/05/18 01:49:38;;;;;;;11.60;11.20;;;6.70;99.90;;;;;;5043461;28;20478;-68
2023/05/18 01:52:09;;;;;;;12.20;11.70;;;6.50;99.90;;;;;;5040581;28;20498;-66
2023/05/18 01:54:39;;;;;;;11.87;11.47;;;6.50;99.90;;;;;;5033122;28;20464;-66
2023/05/18 01:57:08;;;;;;;11.17;10.77;;;6.40;99.90;;;;;;5038189;28;20796;-65
2023/05/18 01:59:37;;;;;;;11.60;11.20;;;6.20;99.90;;;;;;5044453;28;21005;-66
2023/05/18 02:02:05;;;;;;;11.63;11.23;;;6.20;99.90;;;;;;5037397;28;20464;-66
2023/05/18 02:04:33;;;;;;;11.50;11.10;;;6.10;99.90;;;;;;5035934;28;21027;-65
2023/05/18 02:07:01;;;;;;;11.60;11.20;;;5.90;99.90;;;;;;5044904;28;20483;-67
2023/05/18 02:09:28;;;;;;;11.77;11.37;;;5.90;99.90;;;;;;5045048;28;20474;-66
2023/05/18 02:11:56;;;;;;;11.73;11.33;;;5.80;99.90;;;;;;5041623;28;20471;-67
2023/05/18 02:14:22;;;;;;;11.50;11.10;;;5.70;99.90;;;;;;5034619;28;20520;-66
2023/05/18 02:16:51;;;;;;;11.50;11.10;;;5.60;99.90;;;;;;5044609;28;20467;-68
2023/05/18 02:19:18;;;;;;;11.10;10.70;;;5.60;99.90;;;;;;5038532;28;20494;-65
2023/05/18 02:21:45;;;;;;;11.23;10.83;;;5.50;99.90;;;;;;5042051;28;20878;-66
2023/05/18 02:24:13;;;;;;;11.10;10.70;;;5.50;99.90;;;;;;5042674;28;20523;-66
2023/05/18 02:26:40;;;;;;;11.33;10.93;;;5.40;99.90;;;;;;5037633;28;20518;-66
2023/05/18 02:29:10;;;;;;;10.90;10.50;;;5.50;99.90;;;;;;5040008;28;20477;-67
2023/05/18 02:31:37;;;;;;;11.00;10.60;;;5.50;99.90;;;;;;5045409;28;21064;-65
2023/05/18 02:34:07;;;;;;;12.03;11.43;;;5.40;99.90;;;;;;5042357;28;20558;-65
2023/05/18 02:36:38;;;;;;;10.40;10.00;;;5.40;99.90;;;;;;5034642;28;20458;-66
2023/05/18 02:39:06;;;;;;;10.47;10.07;;;5.30;99.90;;;;;;5039366;28;20494;-66
2023/05/18 02:41:33;;;;;;;10.70;10.30;;;5.20;99.90;;;;;;5043337;28;20497;-67
2023/05/18 02:44:00;;;;;;;10.73;10.33;;;5.20;99.90;;;;;;5036234;28;20462;-67
2023/05/18 02:46:27;;;;;;;11.47;11.07;;;5.10;99.90;;;;;;5045167;28;20468;-66
2023/05/18 02:48:55;;;;;;;11.40;11.00;;;5.00;99.90;;;;;;5033759;28;20938;-66
2023/05/18 02:51:24;;;;;;;11.30;10.90;;;5.00;99.90;;;;;;5044633;28;20473;-67
2023/05/18 02:53:53;;;;;;;10.80;10.40;;;5.00;99.90;;;;;;5038698;28;20463;-66
2023/05/18 02:56:19;;;;;;;10.87;10.47;;;5.00;99.90;;;;;;5045703;28;20468;-66
2023/05/18 02:58:46;;;;;;;10.50;10.10;;;4.90;99.90;;;;;;5038595;28;20459;-68
2023/05/18 03:01:13;;;;;;;10.43;10.03;;;4.90;99.90;;;;;;5042709;28;20542;-67
2023/05/18 03:03:42;;;;;;;10.70;10.30;;;4.90;99.90;;;;;;5032356;28;20551;-67
2023/05/18 03:06:09;;;;;;;10.93;10.47;;;4.90;99.90;;;;;;5037615;28;20524;-66
2023/05/18 03:08:37;;;;;;;10.00;9.70;;;4.90;99.90;;;;;;5043983;28;20460;-66
2023/05/18 03:11:04;;;;;;;10.40;10.00;;;4.90;99.90;;;;;;5041852;28;20515;-65
2023/05/18 03:13:30;;;;;;;9.80;9.50;;;4.80;99.90;;;;;;5041963;28;20455;-66
2023/05/18 03:15:58;;;;;;;9.90;9.60;;;4.80;99.90;;;;;;5042985;28;20596;-66
2023/05/18 03:18:25;;;;;;;10.13;9.73;;;4.80;99.90;;;;;;5035312;28;20533;-67
2023/05/18 03:20:52;;;;;;;10.03;9.70;;;4.70;99.90;;;;;;5042790;28;20495;-67
2023/05/18 03:23:19;;;;;;;9.93;9.63;;;4.60;99.90;;;;;;5040596;28;20464;-67
2023/05/18 03:25:52;;;;;;;9.90;9.60;;;4.60;99.90;;;;;;5041844;28;20529;-67
2023/05/18 03:28:19;;;;;;;9.80;9.50;;;4.60;99.90;;;;;;5035352;28;20458;-67
2023/05/18 03:30:47;;;;;;;9.47;9.17;;;4.50;99.90;;;;;;5041240;28;20798;-67
2023/05/18 03:33:15;;;;;;;9.40;9.10;;;4.50;99.90;;;;;;5028966;28;20511;-66
2023/05/18 03:35:42;;;;;;;10.13;9.73;;;4.40;99.90;;;;;;5036995;28;20458;-68
2023/05/18 03:38:09;;;;;;;10.23;9.83;;;4.40;99.90;;;;;;5035529;28;20468;-67
2023/05/18 03:40:36;;;;;;;10.30;9.90;;;4.50;99.90;;;;;;5045771;28;20513;-66
2023/05/18 03:43:04;;;;;;;9.90;9.60;;;4.50;99.90;;;;;;5029159;28;20515;-67
2023/05/18 03:45:31;;;;;;;9.73;9.43;;;4.50;99.90;;;;;;5047287;28;20456;-67
2023/05/18 03:47:58;;;;;;;10.30;9.90;;;4.50;99.90;;;;;;5039298;28;20477;-67
2023/05/18 03:50:27;;;;;;;9.70;9.40;;;4.50;99.90;;;;;;5043331;28;20986;-66
2023/05/18 03:52:54;;;;;;;9.63;9.33;;;4.50;99.90;;;;;;5032644;28;20488;-67
2023/05/18 03:55:22;;;;;;;9.77;9.47;;;4.50;99.90;;;;;;5043562;28;20455;-67
2023/05/18 03:57:52;;;;;;;9.77;9.47;;;4.50;99.90;;;;;;5040223;28;21673;-67
2023/05/18 04:00:22;;;;;;;10.30;9.90;;;4.50;99.90;;;;;;5042032;28;20839;-68
2023/05/18 04:02:50;;;;;;;9.93;9.60;;;4.60;99.90;;;;;;5048135;28;20469;-66
2023/05/18 04:05:17;;;;;;;9.67;9.37;;;4.60;99.90;;;;;;5039996;28;20551;-67
2023/05/18 04:07:45;;;;;;;9.70;9.40;;;4.60;99.90;;;;;;5047525;28;20459;-68
2023/05/18 04:10:15;;;;;;;9.60;9.30;;;4.60;99.90;;;;;;5043969;28;20981;-67
2023/05/18 04:12:42;;;;;;;10.60;10.10;;;4.70;99.90;;;;;;5046092;28;20510;-67
2023/05/18 04:15:13;;;;;;;10.07;9.67;;;4.80;99.90;;;;;;5035339;28;20467;-66
2023/05/18 04:17:44;;;;;;;9.30;9.00;;;4.90;99.90;;;;;;5035112;28;20507;-67
2023/05/18 04:20:12;;;;;;;9.20;8.90;;;5.00;99.90;;;;;;5035620;28;20488;-68
2023/05/18 04:22:45;;;;;;;8.90;8.60;;;5.10;99.90;;;;;;5033460;28;20998;-67
2023/05/18 04:25:12;;;;;;;9.53;9.23;;;5.20;99.90;;;;;;5036012;28;20495;-68
2023/05/18 04:27:40;;;;;;;9.00;8.70;;;5.30;99.90;;;;;;5040951;28;20520;-67
2023/05/18 04:30:09;;;;;;;8.93;8.63;;;5.40;99.90;;;;;;5041941;28;20497;-67
2023/05/18 04:32:36;;;;;;;9.00;8.70;;;5.60;99.90;;;;;;5031399;28;20462;-68
2023/05/18 04:35:08;;;;;;;8.60;8.30;;;5.70;99.90;;;;;;5037948;28;20464;-68
2023/05/18 04:37:39;;;;;;;8.70;8.40;;;5.80;99.90;;;;;;5042331;28;20859;-66
2023/05/18 04:40:11;;;;;;;9.27;8.63;;;5.90;99.90;;;;;;5030278;28;21040;-67
2023/05/18 04:42:44;;;;;;;9.47;9.07;;;6.00;99.90;;;;;;5040710;28;20544;-67
2023/05/18 04:45:15;;;;;;;9.10;8.80;;;6.10;99.90;;;;;;5039817;28;20505;-68
2023/05/18 04:47:45;;;;;;;10.10;9.63;;;6.30;99.90;;;;;;5035369;28;20977;-67
2023/05/18 04:50:17;;;;;;;8.60;8.30;;;6.30;99.90;;;;;;5028809;28;20462;-67
2023/05/18 04:52:47;;;;;;;9.20;8.90;;;6.40;99.90;;;;;;5037997;28;20597;-68
2023/05/18 04:55:21;;;;;;;9.30;9.00;;;6.50;99.90;;;;;;5036901;28;20514;-67
2023/05/18 04:57:49;;;;;;;9.10;8.80;;;6.60;99.90;;;;;;5045431;28;20992;-67
2023/05/18 05:00:17;;;;;;;11.70;11.10;;;6.60;99.90;;;;;;5041787;28;20501;-67
2023/05/18 05:02:45;;;;;;;9.73;9.17;;;6.70;99.90;;;;;;5035860;28;20459;-67
2023/05/18 05:05:13;;;;;;;9.53;9.03;;;6.80;99.90;;;;;;5046340;28;20478;-67
2023/05/18 05:07:40;;;;;;;9.67;9.37;;;6.90;99.90;;;;;;5037597;28;20474;-68
2023/05/18 05:10:08;;;;;;;8.90;8.60;;;7.00;99.90;;;;;;5039749;28;20495;-67
2023/05/18 05:12:36;;;;;;;10.30;9.90;;;7.10;99.90;;;;;;5043400;28;20464;-66
2023/05/18 05:15:03;;;;;;;9.93;9.53;;;7.10;99.90;;;;;;5043361;28;20969;-66
2023/05/18 05:17:30;;;;;;;11.53;10.80;;;7.20;99.90;;;;;;5041664;28;20495;-67
2023/05/18 05:19:58;;;;;;;9.47;9.17;;;7.30;99.90;;;;;;5043865;28;20499;-67
2023/05/18 05:22:26;;;;;;;10.23;9.83;;;7.50;99.90;;;;;;5041485;28;20487;-66
2023/05/18 05:24:54;;;;;;;10.10;9.70;;;7.50;99.90;;;;;;5044358;28;20460;-66
2023/05/18 05:27:21;;;;;;;11.07;10.47;;;7.60;99.90;;;;;;5041153;28;20548;-68
2023/05/18 05:29:49;;;;;;;12.23;11.73;;;7.60;99.90;;;;;;5040111;28;20464;-67
2023/05/18 05:32:16;;;;;;;12.37;11.77;;;7.70;99.90;;;;;;5040840;28;20468;-66
2023/05/18 05:34:45;;;;;;;11.47;10.97;;;7.90;99.90;;;;;;5039506;28;20468;-67
2023/05/18 05:37:13;;;;;;;10.87;10.47;;;8.10;99.90;;;;;;5037849;28;20456;-67
2023/05/18 05:39:42;;;;;;;10.80;10.40;;;8.20;99.90;;;;;;5036223;28;20495;-67
2023/05/18 05:42:09;;;;;;;11.40;10.90;;;8.30;99.90;;;;;;5042884;28;20472;-67
2023/05/18 05:44:38;;;;;;;11.27;10.87;;;8.30;99.90;;;;;;5034426;28;20494;-67
2023/05/18 05:47:05;;;;;;;12.13;11.53;;;8.30;99.90;;;;;;5043835;28;20456;-67
2023/05/18 05:49:31;;;;;;;12.90;12.00;;;8.40;99.90;;;;;;5039903;28;20538;-68
2023/05/18 05:51:58;;;;;;;10.97;10.57;;;8.50;99.90;;;;;;5046375;28;20472;-68
2023/05/18 05:54:25;;;;;;;12.10;11.60;;;8.50;99.90;;;;;;5040484;28;20473;-68
2023/05/18 05:56:53;;;;;;;12.93;12.43;;;8.60;99.90;;;;;;5045536;28;20546;-67
2023/05/18 05:59:21;;;;;;;11.47;10.87;;;8.70;99.90;;;;;;5042577;28;20473;-67
2023/05/18 06:01:47;;;;;;;13.57;12.40;;;8.90;99.90;;;;;;5043228;28;20499;-68
2023/05/18 06:04:15;;;;;;;11.60;11.10;;;8.90;99.90;;;;;;5040259;28;20492;-67
2023/05/18 06:06:42;;;;;;;14.20;13.33;;;9.00;99.90;;;;;;5039020;28;20491;-68
2023/05/18 06:09:09;;;;;;;13.40;12.90;;;9.00;99.90;;;;;;5039134;28;20465;-67
2023/05/18 06:11:36;;;;;;;12.47;11.97;;;9.10;99.90;;;;;;5040944;28;21025;-66
2023/05/18 06:14:05;;;;;;;16.50;15.70;;;9.20;99.90;;;;;;5038379;28;20468;-67
2023/05/18 06:16:32;;;;;;;12.60;12.10;;;9.30;99.90;;;;;;5037403;28;20449;-67
2023/05/18 06:18:59;;;;;;;12.70;12.20;;;9.50;99.90;;;;;;5045755;28;20960;-67
2023/05/18 06:21:25;;;;;;;15.60;14.20;;;9.60;99.90;;;;;;5035395;28;20500;-67
2023/05/18 06:23:53;;;;;;;13.60;12.63;;;9.80;99.90;;;;;;5040151;28;20456;-67
2023/05/18 06:26:20;;;;;;;13.70;13.10;;;9.90;99.90;;;;;;5038333;28;20465;-68
2023/05/18 06:28:47;;;;;;;13.37;12.87;;;10.00;99.90;;;;;;5042603;28;20573;-68
2023/05/18 06:31:17;;;;;;;12.03;11.53;;;10.00;99.90;;;;;;5043497;28;20467;-67
2023/05/18 06:33:44;;;;;;;13.97;13.27;;;10.10;99.90;;;;;;5043845;28;20484;-67
2023/05/18 06:36:11;;;;;;;12.57;12.07;;;10.20;99.90;;;;;;5038985;28;20860;-67
2023/05/18 06:38:38;;;;;;;14.10;13.10;;;10.30;99.90;;;;;;5040827;28;20465;-66
2023/05/18 06:41:05;;;;;;;12.70;12.20;;;10.40;99.90;;;;;;5037788;28;21020;-67
2023/05/18 06:43:32;;;;;;;12.60;12.10;;;10.50;99.90;;;;;;5038139;28;20472;-69
2023/05/18 06:46:00;;;;;;;13.40;12.90;;;10.70;99.90;;;;;;5039867;28;20469;-68
2023/05/18 06:48:29;;;;;;;13.50;12.93;;;10.90;99.90;;;;;;5042238;28;20546;-68
2023/05/18 06:50:56;;;;;;;12.63;12.13;;;11.10;99.90;;;;;;5034243;28;20811;-67
2023/05/18 06:53:23;;;;;;;12.90;12.40;;;11.20;99.90;;;;;;5029027;28;20515;-69
2023/05/18 06:55:49;;;;;;;12.90;12.40;;;11.00;99.90;;;;;;5045182;28;20474;-69
2023/05/18 06:58:17;;;;;;;13.33;12.83;;;11.10;99.90;;;;;;5047896;28;20954;-67
2023/05/18 07:00:45;;;;;;;14.50;13.90;;;11.20;99.90;;;;;;5037783;28;20483;-69
2023/05/18 07:03:12;;;;;;;13.43;12.83;;;11.40;99.90;;;;;;5039398;28;20497;-67
2023/05/18 07:05:40;;;;;;;12.97;12.47;;;11.30;99.90;;;;;;5044045;28;20867;-67
2023/05/18 07:08:08;;;;;;;12.73;12.23;;;11.30;99.90;;;;;;5041846;28;20732;-68
2023/05/18 07:10:35;;;;;;;14.97;14.17;;;11.50;99.90;;;;;;5037790;28;20539;-68
2023/05/18 07:13:03;;;;;;;13.97;13.37;;;11.50;99.90;;;;;;5038251;28;20588;-67
2023/05/18 07:15:29;;;;;;;13.70;13.20;;;11.80;99.90;;;;;;5039766;28;20469;-66
2023/05/18 07:17:56;;;;;;;13.47;12.97;;;12.00;99.90;;;;;;5043250;28;20456;-67
2023/05/18 07:20:23;;;;;;;13.60;13.10;;;12.00;99.90;;;;;;5033812;28;20836;-67
2023/05/18 07:22:53;;;;;;;14.20;13.60;;;12.10;99.90;;;;;;5032298;28;20475;-68
2023/05/18 07:25:20;;;;;;;13.80;13.20;;;12.30;99.90;;;;;;5045219;28;20486;-66
2023/05/18 07:27:47;;;;;;;13.10;12.60;;;12.30;99.90;;;;;;5041384;28;20496;-66
2023/05/18 07:30:14;;;;;;;14.60;13.73;;;12.50;99.90;;;;;;5043983;28;20464;-66
2023/05/18 07:32:43;;;;;;;13.23;12.73;;;12.60;99.90;;;;;;5037139;28;20813;-67
2023/05/18 07:35:10;;;;;;;12.87;12.37;;;12.40;99.90;;;;;;5043476;28;20522;-67
2023/05/18 07:37:37;;;;;;;14.60;13.90;;;12.30;99.90;;;;;;5033783;28;20951;-67
2023/05/18 07:40:08;;;;;;;13.80;13.20;;;12.40;99.90;;;;;;5045506;28;20915;-67
2023/05/18 07:42:35;;;;;;;17.67;16.30;;;12.40;99.90;;;;;;5033452;28;20511;-67
2023/05/18 07:45:02;;;;;;;14.00;13.40;;;12.50;99.90;;;;;;5037089;28;20470;-66
2023/05/18 07:47:29;;;;;;;13.27;12.77;;;12.50;99.90;;;;;;5038039;28;20461;-67
2023/05/18 07:49:56;;;;;;;13.80;13.20;;;12.80;99.90;;;;;;5045479;28;20525;-67
2023/05/18 07:52:23;;;;;;;48.57;14.43;;;13.00;99.90;;;;;;5040600;28;20881;-68
2023/05/18 07:54:49;;;;;;;13.90;13.30;;;13.10;99.90;;;;;;5038859;28;20463;-68
2023/05/18 07:57:18;;;;;;;26.00;15.63;;;13.20;99.90;;;;;;5040800;28;20537;-68
2023/05/18 07:59:45;;;;;;;15.03;13.90;;;13.20;99.90;;;;;;5041469;28;20526;-67
2023/05/18 08:02:12;;;;;;;16.20;15.20;;;13.30;99.90;;;;;;5038589;28;20585;-67
2023/05/18 08:04:39;;;;;;;14.10;13.50;;;13.60;99.90;;;;;;5044026;28;20876;-68
2023/05/18 08:07:07;;;;;;;14.90;14.30;;;13.90;99.90;;;;;;5040137;28;20550;-68
2023/05/18 08:09:34;;;;;;;14.33;13.70;;;13.60;99.90;;;;;;5043365;28;21013;-67
2023/05/18 08:12:02;;;;;;;14.67;14.07;;;13.70;99.90;;;;;;5037840;28;20831;-66
2023/05/18 08:14:30;;;;;;;14.07;13.47;;;13.60;99.90;;;;;;5034446;28;20812;-68
2023/05/18 08:16:56;;;;;;;13.30;12.80;;;14.00;99.90;;;;;;5034557;28;20471;-67
2023/05/18 08:19:24;;;;;;;14.60;13.70;;;14.60;99.90;;;;;;5038253;28;20556;-66
2023/05/18 08:21:51;;;;;;;14.07;13.47;;;15.10;99.90;;;;;;5039227;28;20859;-68
2023/05/18 08:24:18;;;;;;;14.07;13.47;;;15.50;99.90;;;;;;5043929;28;20914;-67
2023/05/18 08:26:45;;;;;;;14.87;14.03;;;15.40;99.90;;;;;;5040187;28;20464;-64
2023/05/18 08:29:12;;;;;;;14.97;14.07;;;16.10;99.90;;;;;;5037525;28;20572;-65
2023/05/18 08:31:41;;;;;;;14.00;13.40;;;16.70;99.90;;;;;;5039842;28;20548;-66
2023/05/18 08:34:08;;;;;;;13.20;12.70;;;16.60;99.90;;;;;;5038764;28;20533;-64
2023/05/18 08:36:36;;;;;;;13.70;13.10;;;17.00;99.90;;;;;;5036590;28;20468;-65
2023/05/18 08:39:04;;;;;;;67.43;14.70;;;17.60;99.30;;;;;;5040493;28;20469;-66
2023/05/18 08:41:35;;;;;;;14.20;13.60;;;17.70;97.00;;;;;;5043797;28;20564;-66
2023/05/18 08:44:05;;;;;;;13.60;13.10;;;18.10;97.20;;;;;;5044728;28;20497;-67
2023/05/18 08:46:34;;;;;;;14.00;13.40;;;18.50;98.30;;;;;;5042433;28;20462;-65
2023/05/18 08:49:05;;;;;;;13.80;13.20;;;19.20;96.70;;;;;;5031875;28;20507;-66
2023/05/18 08:51:35;;;;;;;13.67;13.07;;;19.10;96.10;;;;;;5034870;28;20462;-66
2023/05/18 08:54:05;;;;;;;14.70;14.00;;;19.40;94.50;;;;;;5043449;28;20467;-67
2023/05/18 08:56:33;;;;;;;14.07;13.47;;;19.80;92.50;;;;;;5038610;28;20460;-66
2023/05/18 08:59:06;;;;;;;13.00;12.50;;;20.00;91.00;;;;;;5044378;28;20459;-66
2023/05/18 09:01:34;;;;;;;14.40;13.70;;;19.70;91.00;;;;;;5033046;28;21033;-66
2023/05/18 09:04:03;;;;;;;13.90;13.30;;;19.40;91.00;;;;;;5035186;28;20463;-66
2023/05/18 09:06:33;;;;;;;13.80;13.20;;;19.60;89.00;;;;;;5041106;28;20475;-66
2023/05/18 09:09:03;;;;;;;14.67;14.07;;;19.80;86.40;;;;;;5043070;28;20460;-65
2023/05/18 09:11:31;;;;;;;13.53;12.97;;;19.90;83.10;;;;;;5043247;28;20478;-67
2023/05/18 09:14:00;;;;;;;14.93;14.07;;;19.60;81.90;;;;;;5041681;28;20456;-66
2023/05/18 09:16:27;;;;;;;15.20;14.20;;;18.80;83.40;;;;;;5044719;28;21050;-66
2023/05/18 09:18:54;;;;;;;13.40;12.80;;;17.90;85.70;;;;;;5042809;28;20483;-65
2023/05/18 09:21:23;;;;;;;13.23;12.73;;;18.80;86.70;;;;;;5037297;28;20891;-67
2023/05/18 09:23:51;;;;;;;12.97;12.47;;;19.90;84.70;;;;;;5035187;28;20513;-65
2023/05/18 09:26:21;;;;;;;13.00;12.50;;;19.40;84.20;;;;;;5040784;28;20840;-67
2023/05/18 09:28:52;;;;;;;13.67;13.07;;;19.50;83.40;;;;;;5037258;28;20484;-66
2023/05/18 09:31:20;;;;;;;13.80;13.20;;;20.50;82.30;;;;;;5035814;28;20491;-67
2023/05/18 09:33:49;;;;;;;12.90;12.40;;;20.80;80.30;;;;;;5032864;28;20563;-67
2023/05/18 09:36:16;;;;;;;13.40;12.80;;;20.80;79.10;;;;;;5037284;28;20856;-66
2023/05/18 09:38:45;;;;;;;13.43;12.93;;;21.20;76.70;;;;;;5036576;28;20544;-66
2023/05/18 09:41:15;;;;;;;13.80;12.60;;;20.50;73.80;;;;;;5042689;28;20550;-66
2023/05/18 09:43:44;;;;;;;14.10;13.30;;;20.80;77.10;;;;;;5033451;28;20473;-67
2023/05/18 09:46:12;;;;;;;13.63;13.03;;;21.30;74.00;;;;;;5041313;28;20464;-66
2023/05/18 09:48:43;;;;;;;14.77;13.67;;;20.40;74.30;;;;;;5042156;28;20848;-66
2023/05/18 09:51:12;;;;;;;14.57;13.77;;;20.60;74.10;;;;;;5029303;28;20551;-67
2023/05/18 09:53:40;;;;;;;14.40;13.80;;;20.70;72.30;;;;;;5039452;28;20556;-67
2023/05/18 09:56:10;;;;;;;14.77;13.87;;;21.10;76.80;;;;;;5041416;28;20533;-65
2023/05/18 09:58:39;;;;;;;13.27;12.77;;;21.40;74.10;;;;;;5033846;28;21014;-66
2023/05/18 10:01:06;;;;;;;13.60;13.00;;;21.10;71.10;;;;;;5044531;28;20479;-66
2023/05/18 10:03:35;;;;;;;14.07;13.43;;;21.50;71.60;;;;;;5031571;28;20463;-66
2023/05/18 10:06:05;;;;;;;13.60;13.00;;;22.10;69.10;;;;;;5034929;28;20464;-66
2023/05/18 10:08:33;;;;;;;13.67;13.07;;;22.30;67.30;;;;;;5038952;28;20472;-67
2023/05/18 10:11:01;;;;;;;14.47;13.77;;;22.20;67.10;;;;;;5037903;28;20864;-66
2023/05/18 10:13:31;;;;;;;13.13;12.63;;;21.30;67.20;;;;;;5034662;28;20995;-67
2023/05/18 10:16:00;;;;;;;14.53;13.53;;;21.60;68.30;;;;;;5042107;28;20471;-66
2023/05/18 10:18:29;;;;;;;13.57;12.97;;;22.80;67.50;;;;;;5039543;28;20575;-67
2023/05/18 10:20:57;;;;;;;13.40;12.90;;;22.40;64.60;;;;;;5031574;28;20511;-67
2023/05/18 10:23:26;;;;;;;14.00;13.40;;;22.40;66.20;;;;;;5042630;28;20518;-66
2023/05/18 10:25:54;;;;;;;14.33;13.73;;;22.40;64.60;;;;;;5038079;28;20457;-66
2023/05/18 10:28:24;;;;;;;13.70;13.10;;;23.30;66.30;;;;;;5040490;28;20452;-67
2023/05/18 10:30:54;;;;;;;13.50;13.00;;;22.60;65.30;;;;;;5038825;28;20471;-67
2023/05/18 10:33:24;;;;;;;13.90;13.30;;;22.60;65.70;;;;;;5044236;28;20451;-67
2023/05/18 10:35:52;;;;;;;15.40;14.40;;;23.20;61.60;;;;;;5045159;28;20478;-68
2023/05/18 10:38:21;;;;;;;14.03;13.33;;;22.20;60.10;;;;;;5041931;28;20469;-67
2023/05/18 10:40:50;;;;;;;13.50;12.90;;;20.50;62.40;;;;;;5035585;28;20851;-67
2023/05/18 10:43:20;;;;;;;13.10;12.60;;;20.70;68.30;;;;;;5040226;28;20488;-68
2023/05/18 10:45:48;;;;;;;13.30;12.77;;;21.50;66.00;;;;;;5041192;28;20467;-67
2023/05/18 10:48:19;;;;;;;13.83;13.23;;;22.70;64.60;;;;;;5041789;28;20543;-67
2023/05/18 10:50:48;;;;;;;13.80;13.20;;;23.60;60.80;;;;;;5033802;28;20846;-67
2023/05/18 10:53:17;;;;;;;15.33;14.40;;;24.80;61.30;;;;;;5034879;28;20456;-68
2023/05/18 10:55:44;;;;;;;14.40;13.70;;;24.80;58.90;;;;;;5037563;28;20472;-67
2023/05/18 10:58:14;;;;;;;14.23;13.63;;;24.50;58.30;;;;;;5046477;28;20510;-67
2023/05/18 11:00:42;;;;;;;14.53;13.57;;;23.60;57.80;;;;;;5038399;28;20518;-68
2023/05/18 11:03:13;;;;;;;15.07;14.27;;;23.20;58.80;;;;;;5041983;28;20491;-67
2023/05/18 11:05:42;;;;;;;13.20;12.60;;;22.80;57.60;;;;;;5034390;28;20619;-67
2023/05/18 11:08:09;;;;;;;13.13;12.60;;;23.20;58.80;;;;;;5036031;28;20456;-67
2023/05/18 11:10:41;;;;;;;13.10;12.60;;;23.70;56.90;;;;;;5035314;28;20468;-68
2023/05/18 11:13:08;;;;;;;13.83;13.23;;;24.00;58.70;;;;;;5039502;28;20627;-68
2023/05/18 11:16:06;;;;;;;15.17;14.10;;;24.40;55.50;;;;;;5042682;28;22388;-67
2023/05/18 11:18:39;;;;;;;14.47;13.77;;;23.90;55.20;;;;;;5035259;28;20460;-68
2023/05/18 11:21:20;;;;;;;14.17;13.47;;;23.20;56.10;;;;;;5036835;28;20453;-67
2023/05/18 11:24:22;;;;;;;13.53;12.93;;;23.00;56.30;;;;;;5033383;28;20997;-67
2023/05/18 11:26:51;;;;;;;13.50;12.90;;;23.50;56.90;;;;;;5040666;28;20458;-68
2023/05/18 11:29:21;;;;;;;15.60;14.50;;;24.30;55.20;;;;;;5039727;28;20474;-67
2023/05/18 11:31:49;;;;;;;13.90;13.30;;;24.10;54.60;;;;;;5033274;28;20460;-68
2023/05/18 11:34:43;;;;;;;14.13;13.53;;;25.60;55.60;;;;;;5038017;28;20533;-68
2023/05/18 11:37:12;;;;;;;14.67;13.77;;;24.80;54.40;;;;;;5037422;28;20464;-68
2023/05/18 11:39:40;;;;;;;13.90;13.20;;;24.90;55.20;;;;;;5034189;28;20464;-68
2023/05/18 11:42:09;;;;;;;13.63;13.03;;;24.40;54.60;;;;;;5041115;28;20490;-68
2023/05/18 11:44:38;;;;;;;15.63;14.73;;;24.90;55.70;;;;;;5041279;28;20455;-67
2023/05/18 11:47:08;;;;;;;14.80;14.00;;;24.80;53.00;;;;;;5041566;28;20452;-68
2023/05/18 11:49:37;;;;;;;14.50;13.70;;;24.50;53.00;;;;;;5032760;28;20452;-67
2023/05/18 11:52:06;;;;;;;13.70;13.10;;;23.30;53.00;;;;;;5042186;28;20463;-68
2023/05/18 11:54:39;;;;;;;13.20;12.60;;;22.60;54.50;;;;;;5031874;28;20478;-68
2023/05/18 11:57:06;;;;;;;14.00;13.40;;;23.80;55.60;;;;;;5038187;28;20849;-67
2023/05/18 11:59:36;;;;;;;14.07;13.33;;;24.50;54.80;;;;;;5028757;28;21308;-67
2023/05/18 12:02:03;;;;;;;14.57;13.33;;;24.50;54.10;;;;;;5041443;28;20584;-67
2023/05/18 12:04:32;;;;;;;13.63;13.03;;;24.40;55.20;;;;;;5033458;28;20955;-68
2023/05/18 12:07:00;;;;;;;13.40;12.90;;;25.60;54.40;;;;;;5043973;28;20490;-67
2023/05/18 12:09:30;;;;;;;14.13;13.53;;;25.30;52.30;;;;;;5041417;28;20539;-68
2023/05/18 12:11:58;;;;;;;14.23;13.53;;;25.30;52.60;;;;;;5039255;28;20469;-68
2023/05/18 12:14:26;;;;;;;14.30;13.70;;;25.80;51.30;;;;;;5044266;28;20629;-68
2023/05/18 12:16:54;;;;;;;15.00;14.20;;;25.30;53.10;;;;;;5040739;28;20463;-68
2023/05/18 12:19:22;;;;;;;14.57;13.83;;;25.30;53.20;;;;;;5039702;28;20569;-68
2023/05/18 12:21:49;;;;;;;16.37;15.10;;;25.50;52.70;;;;;;5039580;28;20487;-67
2023/05/18 12:24:16;;;;;;;13.70;13.10;;;26.10;51.40;;;;;;5044319;28;20459;-68
2023/05/18 12:26:45;;;;;;;14.53;13.63;;;25.70;51.20;;;;;;5041087;28;20467;-68
2023/05/18 12:29:18;;;;;;;13.60;13.03;;;25.00;52.30;;;;;;5035995;28;20545;-68
2023/05/18 12:31:46;;;;;;;14.10;13.50;;;24.60;52.30;;;;;;5033651;28;20460;-68
2023/05/18 12:34:14;;;;;;;13.30;12.77;;;24.40;51.80;;;;;;5043055;28;21046;-68
2023/05/18 12:36:43;;;;;;;13.80;13.10;;;25.40;52.00;;;;;;5040097;28;20491;-69
2023/05/18 12:39:14;;;;;;;14.33;13.73;;;25.90;51.00;;;;;;5041345;28;20491;-68
2023/05/18 12:41:41;;;;;;;14.33;13.47;;;26.10;51.00;;;;;;5037400;28;20870;-68
2023/05/18 12:44:08;;;;;;;12.60;12.10;;;25.70;50.30;;;;;;5033296;28;20473;-68